createdAt,value
2019-05-21T00:00:20.726Z,99133.70
2019-05-21T00:00:56.721Z,99133.92
2019-05-21T00:01:32.720Z,99134.58
2019-05-21T00:02:08.193Z,99135.78
2019-05-21T00:02:44.901Z,99132.91
2019-05-21T00:03:20.914Z,99129.48
2019-05-21T00:03:56.351Z,99138.38
2019-05-21T00:04:32.937Z,99137.05
2019-05-21T00:05:09.832Z,99134.58
2019-05-21T00:05:45.295Z,99138.75
2019-05-21T00:06:21.920Z,99139.83
2019-05-21T00:06:57.944Z,99134.54
2019-05-21T00:07:33.431Z,99140.53
2019-05-21T00:08:09.593Z,99137.93
2019-05-21T00:08:47.014Z,99141.88
2019-05-21T00:09:22.441Z,99137.78
2019-05-21T00:09:59.480Z,99142.39
2019-05-21T00:10:36.100Z,99142.20
2019-05-21T00:11:12.146Z,99135.83
2019-05-21T00:11:48.162Z,99137.42
2019-05-21T00:12:25.205Z,99138.34
2019-05-21T00:13:00.764Z,99141.27
2019-05-21T00:13:37.398Z,99142.61
2019-05-21T00:14:13.470Z,99142.00
2019-05-21T00:14:48.944Z,99136.86
2019-05-21T00:15:25.354Z,99141.03
2019-05-21T00:16:01.958Z,99135.83
2019-05-21T00:16:38.034Z,99132.86
2019-05-21T00:17:14.536Z,99135.38
2019-05-21T00:17:52.066Z,99138.53
2019-05-21T00:18:28.617Z,99132.64
2019-05-21T00:19:04.655Z,99135.14
2019-05-21T00:19:41.080Z,99132.86
2019-05-21T00:20:18.432Z,99132.40
2019-05-21T00:20:55.429Z,99131.02
2019-05-21T00:21:31.407Z,99131.43
2019-05-21T00:22:07.539Z,99129.25
2019-05-21T00:22:43.764Z,99125.77
2019-05-21T00:23:20.145Z,99122.56
2019-05-21T00:23:56.573Z,99124.05
2019-05-21T00:24:32.575Z,99126.23
2019-05-21T00:25:09.381Z,99134.20
2019-05-21T00:25:46.193Z,99134.77
2019-05-21T00:26:22.801Z,99128.36
2019-05-21T00:26:59.204Z,99133.30
2019-05-21T00:27:35.728Z,99123.27
2019-05-21T00:28:43.403Z,99134.72
2019-05-21T00:29:55.472Z,99131.48
2019-05-21T00:31:07.067Z,99133.66
2019-05-21T00:32:18.507Z,99135.55
2019-05-21T00:33:30.716Z,99131.11
2019-05-21T00:34:44.290Z,99138.02
2019-05-21T00:35:56.190Z,99136.36
2019-05-21T00:37:09.616Z,99126.28
2019-05-21T00:38:21.724Z,99121.11
2019-05-21T00:39:33.012Z,99131.59
2019-05-21T00:40:45.039Z,99133.08
2019-05-21T00:41:56.717Z,99124.92
2019-05-21T00:42:36.301Z,99118.80
2019-05-21T00:43:12.948Z,99125.76
2019-05-21T00:43:54.380Z,99127.70
2019-05-21T00:44:32.785Z,99127.85
2019-05-21T00:45:10.943Z,99124.36
2019-05-21T00:45:47.543Z,99121.58
2019-05-21T00:46:24.136Z,99124.17
2019-05-21T00:47:01.187Z,99132.71
2019-05-21T00:47:36.646Z,99130.70
2019-05-21T00:48:13.384Z,99133.27
2019-05-21T00:48:49.421Z,99125.66
2019-05-21T00:49:25.923Z,99125.05
2019-05-21T00:50:02.031Z,99123.44
2019-05-21T00:50:38.850Z,99126.69
2019-05-21T00:51:15.713Z,99121.03
2019-05-21T00:52:06.510Z,99123.08
2019-05-21T00:52:30.426Z,99125.48
2019-05-21T00:53:06.951Z,99120.28
2019-05-21T00:53:43.757Z,99121.95
2019-05-21T00:54:20.257Z,99124.36
2019-05-21T00:54:56.961Z,99124.55
2019-05-21T00:55:33.415Z,99124.55
2019-05-21T00:56:09.909Z,99125.11
2019-05-21T00:56:46.775Z,99124.77
2019-05-21T00:57:23.633Z,99127.92
2019-05-21T00:58:00.239Z,99120.09
2019-05-21T00:58:35.748Z,99125.61
2019-05-21T00:59:12.852Z,99128.12
2019-05-21T00:59:49.500Z,99125.94
2019-05-21T01:00:25.318Z,99130.20
2019-05-21T01:01:02.281Z,99125.48
2019-05-21T01:01:38.352Z,99129.62
2019-05-21T01:02:14.461Z,99127.05
2019-05-21T01:02:50.847Z,99134.94
2019-05-21T01:03:26.942Z,99125.52
2019-05-21T01:04:03.350Z,99128.11
2019-05-21T01:04:39.416Z,99129.23
2019-05-21T01:05:16.873Z,99130.25
2019-05-21T01:05:52.950Z,99123.23
2019-05-21T01:06:29.291Z,99118.09
2019-05-21T01:07:05.739Z,99117.58
2019-05-21T01:07:42.418Z,99127.73
2019-05-21T01:08:19.137Z,99129.88
2019-05-21T01:08:55.664Z,99128.45
2019-05-21T01:09:31.185Z,99115.00
2019-05-21T01:10:07.840Z,99116.48
2019-05-21T01:10:44.517Z,99122.20
2019-05-21T01:11:19.985Z,99125.90
2019-05-21T01:11:55.994Z,99126.96
2019-05-21T01:12:32.026Z,99116.48
2019-05-21T01:13:07.852Z,99116.42
2019-05-21T01:13:44.480Z,99115.25
2019-05-21T01:14:21.787Z,99122.39
2019-05-21T01:14:57.581Z,99117.48
2019-05-21T01:15:33.771Z,99121.16
2019-05-21T01:16:09.985Z,99119.86
2019-05-21T01:16:45.684Z,99114.70
2019-05-21T01:17:22.225Z,99113.16
2019-05-21T01:17:58.544Z,99115.56
2019-05-21T01:18:34.028Z,99119.27
2019-05-21T01:19:11.419Z,99115.66
2019-05-21T01:19:48.881Z,99122.24
2019-05-21T01:20:24.314Z,99117.11
2019-05-21T01:21:00.336Z,99115.53
2019-05-21T01:21:36.733Z,99117.58
2019-05-21T01:22:12.468Z,99113.77
2019-05-21T01:22:49.529Z,99116.13
2019-05-21T01:23:25.520Z,99114.70
2019-05-21T01:24:01.417Z,99115.44
2019-05-21T01:24:37.832Z,99113.53
2019-05-21T01:25:14.769Z,99120.63
2019-05-21T01:25:50.289Z,99121.31
2019-05-21T01:26:26.650Z,99121.78
2019-05-21T01:27:02.681Z,99119.83
2019-05-21T01:27:38.576Z,99114.70
2019-05-21T01:28:14.740Z,99112.69
2019-05-21T01:28:50.787Z,99114.83
2019-05-21T01:29:26.923Z,99119.73
2019-05-21T01:30:02.939Z,99117.67
2019-05-21T01:30:39.918Z,99120.30
2019-05-21T01:31:16.363Z,99115.84
2019-05-21T01:31:52.683Z,99116.13
2019-05-21T01:32:29.317Z,99115.10
2019-05-21T01:33:05.327Z,99118.63
2019-05-21T01:33:42.441Z,99122.00
2019-05-21T01:34:18.844Z,99111.30
2019-05-21T01:34:54.276Z,99116.58
2019-05-21T01:35:30.299Z,99120.61
2019-05-21T01:36:06.373Z,99113.28
2019-05-21T01:36:41.850Z,99115.50
2019-05-21T01:37:17.944Z,99119.09
2019-05-21T01:37:53.956Z,99117.27
2019-05-21T01:38:29.429Z,99110.03
2019-05-21T01:39:07.164Z,99112.07
2019-05-21T01:39:43.304Z,99109.02
2019-05-21T01:40:18.902Z,99121.91
2019-05-21T01:40:55.169Z,99114.27
2019-05-21T01:41:31.547Z,99110.22
2019-05-21T01:42:07.011Z,99112.23
2019-05-21T01:42:43.074Z,99108.80
2019-05-21T01:43:20.001Z,99109.75
2019-05-21T01:43:55.857Z,99112.05
2019-05-21T01:44:32.596Z,99109.38
2019-05-21T01:45:09.246Z,99113.90
2019-05-21T01:45:44.738Z,99108.80
2019-05-21T01:46:21.462Z,99118.53
2019-05-21T01:46:57.810Z,99104.25
2019-05-21T01:47:33.278Z,99104.25
2019-05-21T01:48:09.389Z,99115.28
2019-05-21T01:48:45.808Z,99112.07
2019-05-21T01:49:21.657Z,99114.39
2019-05-21T01:49:57.949Z,99115.50
2019-05-21T01:50:34.305Z,99116.41
2019-05-21T01:51:10.035Z,99116.95
2019-05-21T01:51:46.441Z,99119.40
2019-05-21T01:52:22.463Z,99112.81
2019-05-21T01:52:57.909Z,99106.60
2019-05-21T01:53:33.912Z,99110.03
2019-05-21T01:54:10.292Z,99109.20
2019-05-21T01:54:46.018Z,99112.53
2019-05-21T01:55:22.449Z,99109.29
2019-05-21T01:55:58.463Z,99105.98
2019-05-21T01:56:33.911Z,99110.15
2019-05-21T01:57:10.573Z,99109.99
2019-05-21T01:57:47.252Z,99106.56
2019-05-21T01:58:22.724Z,99118.31
2019-05-21T01:58:58.830Z,99104.71
2019-05-21T01:59:35.224Z,99109.13
2019-05-21T02:00:11.201Z,99103.66
2019-05-21T02:00:47.254Z,99107.00
2019-05-21T02:01:23.365Z,99102.09
2019-05-21T02:01:59.516Z,99104.71
2019-05-21T02:02:35.529Z,99116.94
2019-05-21T02:03:11.764Z,99107.66
2019-05-21T02:03:47.568Z,99107.66
2019-05-21T02:04:23.869Z,99102.45
2019-05-21T02:04:59.993Z,99101.28
2019-05-21T02:05:35.537Z,99101.72
2019-05-21T02:06:11.630Z,99098.01
2019-05-21T02:06:49.367Z,99106.28
2019-05-21T02:07:24.934Z,99104.13
2019-05-21T02:08:01.599Z,99106.47
2019-05-21T02:08:37.646Z,99106.56
2019-05-21T02:09:13.215Z,99099.52
2019-05-21T02:09:59.010Z,99107.99
2019-05-21T02:10:35.080Z,99116.73
2019-05-21T02:11:10.834Z,99095.32
2019-05-21T02:11:46.883Z,99103.04
2019-05-21T02:12:22.902Z,99099.39
2019-05-21T02:12:58.933Z,99103.75
2019-05-21T02:13:35.377Z,99093.50
2019-05-21T02:14:11.922Z,99096.19
2019-05-21T02:14:47.885Z,99093.59
2019-05-21T02:15:24.584Z,99100.47
2019-05-21T02:16:01.183Z,99087.77
2019-05-21T02:16:36.943Z,99093.06
2019-05-21T02:17:13.168Z,99091.39
2019-05-21T02:17:50.084Z,99087.74
2019-05-21T02:18:25.828Z,99097.27
2019-05-21T02:19:02.485Z,99089.67
2019-05-21T02:19:39.419Z,99090.16
2019-05-21T02:20:14.997Z,99094.33
2019-05-21T02:20:51.474Z,99094.54
2019-05-21T02:21:27.873Z,99102.14
2019-05-21T02:22:03.314Z,99086.42
2019-05-21T02:22:40.851Z,99087.47
2019-05-21T02:23:16.951Z,99078.57
2019-05-21T02:23:52.408Z,99078.57
2019-05-21T02:24:29.360Z,99089.02
2019-05-21T02:25:06.596Z,99082.25
2019-05-21T02:25:42.474Z,99090.25
2019-05-21T02:26:19.057Z,99087.28
2019-05-21T02:26:55.544Z,99089.34
2019-05-21T02:27:32.014Z,99091.57
2019-05-21T02:28:08.151Z,99091.08
2019-05-21T02:28:44.859Z,99087.72
2019-05-21T02:29:20.335Z,99089.70
2019-05-21T02:29:56.699Z,99087.28
2019-05-21T02:30:32.759Z,99082.75
2019-05-21T02:31:08.730Z,99083.23
2019-05-21T02:31:44.912Z,99076.53
2019-05-21T02:32:20.922Z,99088.86
2019-05-21T02:32:56.513Z,99079.25
2019-05-21T02:33:33.801Z,99089.88
2019-05-21T02:34:10.312Z,99082.28
2019-05-21T02:34:45.869Z,99082.28
2019-05-21T02:35:21.910Z,99077.64
2019-05-21T02:35:57.925Z,99086.36
2019-05-21T02:36:34.339Z,99086.45
2019-05-21T02:37:10.794Z,99081.45
2019-05-21T02:37:46.907Z,99087.66
2019-05-21T02:38:22.803Z,99086.33
2019-05-21T02:38:59.155Z,99078.57
2019-05-21T02:39:35.151Z,99078.57
2019-05-21T02:40:12.916Z,99076.66
2019-05-21T02:40:49.543Z,99078.76
2019-05-21T02:41:25.914Z,99085.31
2019-05-21T02:42:02.466Z,99080.27
2019-05-21T02:42:39.216Z,99079.09
2019-05-21T02:43:15.863Z,99091.58
2019-05-21T02:43:51.307Z,99084.29
2019-05-21T02:44:27.751Z,99088.30
2019-05-21T02:45:03.760Z,99085.68
2019-05-21T02:45:39.746Z,99087.23
2019-05-21T02:46:15.921Z,99087.16
2019-05-21T02:46:52.064Z,99088.18
2019-05-21T02:47:28.466Z,99084.59
2019-05-21T02:48:05.139Z,99088.03
2019-05-21T02:48:41.302Z,99085.95
2019-05-21T02:49:16.834Z,99086.70
2019-05-21T02:49:53.136Z,99087.07
2019-05-21T02:50:29.748Z,99090.99
2019-05-21T02:51:05.814Z,99083.36
2019-05-21T02:51:42.549Z,99083.77
2019-05-21T02:52:18.673Z,99086.08
2019-05-21T02:52:54.128Z,99077.98
2019-05-21T02:53:34.350Z,99086.08
2019-05-21T02:54:08.755Z,99082.66
2019-05-21T02:54:45.725Z,99083.12
2019-05-21T02:55:22.339Z,99083.20
2019-05-21T02:55:58.345Z,99076.34
2019-05-21T02:56:33.858Z,99080.39
2019-05-21T02:57:10.541Z,99076.23
2019-05-21T02:57:46.588Z,99075.67
2019-05-21T02:58:22.638Z,99071.31
2019-05-21T02:58:58.982Z,99070.60
2019-05-21T02:59:35.329Z,99079.69
2019-05-21T03:00:40.268Z,99070.50
2019-05-21T03:01:23.426Z,99068.96
2019-05-21T03:02:08.812Z,99068.96
2019-05-21T03:02:44.904Z,99068.59
2019-05-21T03:03:22.037Z,99066.88
2019-05-21T03:03:58.704Z,99070.28
2019-05-21T03:04:35.125Z,99081.30
2019-05-21T03:05:11.138Z,99085.11
2019-05-21T03:05:47.522Z,99073.34
2019-05-21T03:06:23.577Z,99080.17
2019-05-21T03:07:17.659Z,99086.78
2019-05-21T03:07:54.043Z,99077.14
2019-05-21T03:08:30.042Z,99082.07
2019-05-21T03:09:07.229Z,99087.52
2019-05-21T03:09:44.188Z,99094.83
2019-05-21T03:10:20.926Z,99082.69
2019-05-21T03:10:56.682Z,99083.45
2019-05-21T03:11:32.732Z,99086.95
2019-05-21T03:12:08.913Z,99078.66
2019-05-21T03:12:44.890Z,99095.77
2019-05-21T03:13:20.985Z,99078.73
2019-05-21T03:13:57.189Z,99097.16
2019-05-21T03:14:32.728Z,99097.16
2019-05-21T03:15:09.440Z,99081.61
2019-05-21T03:15:45.873Z,99092.70
2019-05-21T03:16:21.339Z,99092.54
2019-05-21T03:16:57.756Z,99088.36
2019-05-21T03:17:33.986Z,99085.41
2019-05-21T03:18:09.553Z,99084.94
2019-05-21T03:18:46.031Z,99084.94
2019-05-21T03:19:22.045Z,99095.50
2019-05-21T03:19:57.924Z,99099.48
2019-05-21T03:20:34.353Z,99095.15
2019-05-21T03:21:11.014Z,99095.77
2019-05-21T03:21:46.500Z,99108.39
2019-05-21T03:22:22.816Z,99106.27
2019-05-21T03:22:58.929Z,99106.27
2019-05-21T03:23:35.394Z,99106.72
2019-05-21T03:24:11.774Z,99109.58
2019-05-21T03:24:47.856Z,99099.11
2019-05-21T03:25:23.375Z,99110.70
2019-05-21T03:25:59.391Z,99099.11
2019-05-21T03:26:35.781Z,99100.50
2019-05-21T03:27:11.260Z,99089.50
2019-05-21T03:27:47.291Z,99086.81
2019-05-21T03:28:23.306Z,99084.02
2019-05-21T03:28:59.381Z,99087.34
2019-05-21T03:29:35.399Z,99085.96
2019-05-21T03:30:12.081Z,99082.72
2019-05-21T03:30:47.677Z,99083.53
2019-05-21T03:31:24.029Z,99087.52
2019-05-21T03:32:00.133Z,99083.38
2019-05-21T03:32:35.579Z,99090.69
2019-05-21T03:33:12.047Z,99080.31
2019-05-21T03:33:48.165Z,99076.07
2019-05-21T03:34:23.914Z,99077.97
2019-05-21T03:35:00.241Z,99075.67
2019-05-21T03:35:36.262Z,99080.21
2019-05-21T03:36:11.994Z,99088.65
2019-05-21T03:36:48.047Z,99082.45
2019-05-21T03:37:24.071Z,99080.03
2019-05-21T03:38:00.501Z,99080.03
2019-05-21T03:38:36.848Z,99086.89
2019-05-21T03:39:13.730Z,99074.40
2019-05-21T03:39:49.302Z,99079.67
2019-05-21T03:40:25.340Z,99077.84
2019-05-21T03:41:01.630Z,99077.84
2019-05-21T03:41:37.471Z,99069.50
2019-05-21T03:42:13.583Z,99081.45
2019-05-21T03:42:49.654Z,99085.44
2019-05-21T03:43:25.120Z,99085.44
2019-05-21T03:44:01.166Z,99086.92
2019-05-21T03:44:37.773Z,99086.46
2019-05-21T03:45:13.613Z,99086.46
2019-05-21T03:45:50.234Z,99087.39
2019-05-21T03:46:26.594Z,99087.39
2019-05-21T03:47:02.081Z,99096.16
2019-05-21T03:47:38.201Z,99087.84
2019-05-21T03:48:14.701Z,99087.84
2019-05-21T03:48:50.154Z,99089.52
2019-05-21T03:49:26.935Z,99096.09
2019-05-21T03:50:03.539Z,99096.09
2019-05-21T03:50:39.113Z,99100.80
2019-05-21T03:51:15.253Z,99099.31
2019-05-21T03:51:52.002Z,99113.41
2019-05-21T03:52:27.466Z,99112.47
2019-05-21T03:53:03.858Z,99104.98
2019-05-21T03:53:39.939Z,99102.75
2019-05-21T03:54:15.470Z,99109.43
2019-05-21T03:54:51.477Z,99109.43
2019-05-21T03:55:27.900Z,99107.23
2019-05-21T03:56:03.340Z,99109.23
2019-05-21T03:56:39.994Z,99110.07
2019-05-21T03:57:16.018Z,99098.48
2019-05-21T03:57:51.509Z,99103.88
2019-05-21T03:58:27.556Z,99111.73
2019-05-21T03:59:03.608Z,99114.25
2019-05-21T03:59:39.173Z,99107.40
2019-05-21T04:00:16.512Z,99106.55
2019-05-21T04:00:52.967Z,99096.18
2019-05-21T04:01:28.408Z,99113.95
2019-05-21T04:02:04.852Z,99110.16
2019-05-21T04:02:41.998Z,99110.44
2019-05-21T04:03:17.943Z,99119.80
2019-05-21T04:03:54.318Z,99119.80
2019-05-21T04:04:30.316Z,99108.61
2019-05-21T04:05:06.439Z,99104.26
2019-05-21T04:05:42.565Z,99104.26
2019-05-21T04:06:19.010Z,99116.64
2019-05-21T04:06:54.522Z,99116.02
2019-05-21T04:07:30.574Z,99109.70
2019-05-21T04:08:06.648Z,99111.30
2019-05-21T04:08:43.086Z,99111.30
2019-05-21T04:09:19.482Z,99101.00
2019-05-21T04:09:55.487Z,99101.00
2019-05-21T04:10:30.941Z,99102.59
2019-05-21T04:11:07.772Z,99107.70
2019-05-21T04:11:44.201Z,99103.52
2019-05-21T04:12:20.123Z,99105.11
2019-05-21T04:13:09.206Z,99106.19
2019-05-21T04:13:45.884Z,99097.34
2019-05-21T04:14:34.092Z,99097.34
2019-05-21T04:15:11.908Z,99104.27
2019-05-21T04:16:03.078Z,99104.27
2019-05-21T04:16:46.416Z,99110.55
2019-05-21T04:17:41.005Z,99109.25
2019-05-21T04:18:21.554Z,99094.91
2019-05-21T04:19:28.751Z,99094.91
2019-05-21T04:20:04.453Z,99101.11
2019-05-21T04:20:40.914Z,99100.09
2019-05-21T04:21:17.099Z,99092.78
2019-05-21T04:21:52.812Z,99085.84
2019-05-21T04:22:28.848Z,99094.53
2019-05-21T04:23:04.876Z,99092.23
2019-05-21T04:23:40.781Z,99092.23
2019-05-21T04:24:16.995Z,99092.78
2019-05-21T04:24:52.997Z,99091.77
2019-05-21T04:25:28.785Z,99099.16
2019-05-21T04:26:04.842Z,99099.16
2019-05-21T04:26:41.195Z,99091.48
2019-05-21T04:27:16.768Z,99091.48
2019-05-21T04:27:53.035Z,99092.59
2019-05-21T04:28:29.097Z,99092.59
2019-05-21T04:29:04.906Z,99095.66
2019-05-21T04:29:41.134Z,99090.09
2019-05-21T04:30:17.179Z,99083.24
2019-05-21T04:30:52.743Z,99083.24
2019-05-21T04:31:29.392Z,99096.03
2019-05-21T04:32:05.906Z,99095.20
2019-05-21T04:32:41.515Z,99096.66
2019-05-21T04:33:17.678Z,99096.66
2019-05-21T04:33:53.711Z,99083.69
2019-05-21T04:34:29.213Z,99089.72
2019-05-21T04:35:05.469Z,99089.72
2019-05-21T04:35:42.128Z,99088.96
2019-05-21T04:36:17.690Z,99088.96
2019-05-21T04:37:09.294Z,99121.02
2019-05-21T04:37:31.785Z,99097.31
2019-05-21T04:38:08.108Z,99090.17
2019-05-21T04:38:44.778Z,99094.45
2019-05-21T04:39:20.826Z,99093.44
2019-05-21T04:39:56.285Z,99098.23
2019-05-21T04:40:32.298Z,99102.67
2019-05-21T04:41:08.426Z,99108.86
2019-05-21T04:41:44.948Z,99108.86
2019-05-21T04:42:21.720Z,99103.32
2019-05-21T04:43:01.662Z,99101.83
2019-05-21T04:43:35.214Z,99098.69
2019-05-21T04:44:11.932Z,99098.69
2019-05-21T04:44:48.258Z,99102.39
2019-05-21T04:45:23.738Z,99103.67
2019-05-21T04:45:59.756Z,99102.88
2019-05-21T04:46:35.795Z,99094.72
2019-05-21T04:47:11.327Z,99099.80
2019-05-21T04:47:47.428Z,99103.97
2019-05-21T04:48:23.521Z,99102.05
2019-05-21T04:48:59.363Z,99102.05
2019-05-21T04:49:35.721Z,99104.06
2019-05-21T04:50:12.054Z,99105.56
2019-05-21T04:50:48.221Z,99102.39
2019-05-21T04:51:24.668Z,99107.39
2019-05-21T04:52:00.689Z,99107.39
2019-05-21T04:52:37.125Z,99102.66
2019-05-21T04:53:14.011Z,99108.52
2019-05-21T04:53:50.740Z,99107.09
2019-05-21T04:54:26.749Z,99107.09
2019-05-21T04:55:02.791Z,99115.63
2019-05-21T04:55:38.878Z,99117.13
2019-05-21T04:56:14.536Z,99117.13
2019-05-21T04:56:50.975Z,99110.83
2019-05-21T04:57:27.010Z,99111.29
2019-05-21T04:58:02.849Z,99116.94
2019-05-21T04:58:39.126Z,99116.19
2019-05-21T04:59:15.605Z,99116.19
2019-05-21T04:59:51.439Z,99119.99
2019-05-21T05:00:27.561Z,99121.02
2019-05-21T05:01:03.794Z,99121.02
2019-05-21T05:01:39.448Z,99120.19
2019-05-21T05:02:15.949Z,99117.48
2019-05-21T05:02:52.061Z,99112.95
2019-05-21T05:03:28.083Z,99122.50
2019-05-21T05:04:04.520Z,99115.02
2019-05-21T05:04:40.649Z,99115.02
2019-05-21T05:05:16.346Z,99121.12
2019-05-21T05:05:52.456Z,99122.78
2019-05-21T05:06:28.601Z,99121.75
2019-05-21T05:07:04.362Z,99118.44
2019-05-21T05:07:40.911Z,99124.55
2019-05-21T05:08:16.974Z,99117.22
2019-05-21T05:08:52.750Z,99120.20
2019-05-21T05:09:29.513Z,99130.66
2019-05-21T05:10:06.601Z,99122.05
2019-05-21T05:10:42.494Z,99127.61
2019-05-21T05:11:19.209Z,99132.79
2019-05-21T05:11:55.238Z,99130.36
2019-05-21T05:12:30.804Z,99130.36
2019-05-21T05:13:07.593Z,99123.50
2019-05-21T05:13:44.170Z,99123.50
2019-05-21T05:14:19.634Z,99131.66
2019-05-21T05:14:56.041Z,99124.62
2019-05-21T05:15:32.036Z,99124.62
2019-05-21T05:16:08.405Z,99122.66
2019-05-21T05:16:44.626Z,99136.39
2019-05-21T05:17:20.607Z,99136.39
2019-05-21T05:17:56.494Z,99126.86
2019-05-21T05:18:32.581Z,99137.22
2019-05-21T05:19:08.633Z,99130.20
2019-05-21T05:19:44.218Z,99130.20
2019-05-21T05:20:21.052Z,99125.47
2019-05-21T05:20:57.725Z,99125.09
2019-05-21T05:21:33.195Z,99134.25
2019-05-21T05:22:09.594Z,99141.65
2019-05-21T05:22:46.083Z,99129.06
2019-05-21T05:23:21.545Z,99128.44
2019-05-21T05:23:58.125Z,99127.69
2019-05-21T05:24:37.097Z,99131.28
2019-05-21T05:25:12.184Z,99126.77
2019-05-21T05:25:48.748Z,99130.92
2019-05-21T05:26:25.027Z,99126.11
2019-05-21T05:27:00.874Z,99126.11
2019-05-21T05:27:36.876Z,99125.94
2019-05-21T05:28:13.028Z,99132.05
2019-05-21T05:28:48.596Z,99124.27
2019-05-21T05:29:24.637Z,99146.84
2019-05-21T05:30:00.983Z,99133.98
2019-05-21T05:30:36.567Z,99133.98
2019-05-21T05:31:15.256Z,99127.13
2019-05-21T05:31:50.751Z,99136.22
2019-05-21T05:32:26.650Z,99132.77
2019-05-21T05:33:02.975Z,99139.63
2019-05-21T05:33:39.210Z,99132.05
2019-05-21T05:34:14.782Z,99128.05
2019-05-21T05:34:50.966Z,99122.61
2019-05-21T05:35:26.960Z,99127.33
2019-05-21T05:36:02.521Z,99127.33
2019-05-21T05:36:38.799Z,99125.74
2019-05-21T05:37:14.905Z,99123.80
2019-05-21T05:37:50.845Z,99130.84
2019-05-21T05:38:27.270Z,99126.66
2019-05-21T05:39:03.553Z,99138.91
2019-05-21T05:39:39.085Z,99116.58
2019-05-21T05:40:16.632Z,99116.96
2019-05-21T05:40:52.650Z,99126.49
2019-05-21T05:41:28.102Z,99126.49
2019-05-21T05:42:04.110Z,99116.67
2019-05-21T05:42:40.259Z,99129.38
2019-05-21T05:43:16.208Z,99118.88
2019-05-21T05:43:52.574Z,99118.05
2019-05-21T05:44:29.000Z,99125.11
2019-05-21T05:45:04.913Z,99125.11
2019-05-21T05:45:41.523Z,99116.96
2019-05-21T05:46:17.621Z,99116.96
2019-05-21T05:46:53.096Z,99122.98
2019-05-21T05:47:29.083Z,99119.34
2019-05-21T05:48:05.517Z,99126.28
2019-05-21T05:48:48.329Z,99125.57
2019-05-21T05:49:30.183Z,99116.58
2019-05-21T05:50:08.346Z,99122.89
2019-05-21T05:50:45.587Z,99117.13
2019-05-21T05:51:21.659Z,99117.13
2019-05-21T05:51:57.611Z,99132.59
2019-05-21T05:52:33.070Z,99119.46
2019-05-21T05:53:09.123Z,99119.18
2019-05-21T05:53:58.773Z,99112.16
2019-05-21T05:54:34.202Z,99118.72
2019-05-21T05:55:10.882Z,99124.82
2019-05-21T05:55:47.057Z,99120.18
2019-05-21T05:56:22.564Z,99117.41
2019-05-21T05:56:59.051Z,99113.53
2019-05-21T05:57:35.056Z,99118.25
2019-05-21T05:58:10.607Z,99114.16
2019-05-21T05:58:46.651Z,99127.13
2019-05-21T05:59:22.666Z,99127.13
2019-05-21T05:59:58.110Z,99118.25
2019-05-21T06:00:34.136Z,99124.65
2019-05-21T06:01:10.147Z,99124.65
2019-05-21T06:01:45.724Z,99121.69
2019-05-21T06:02:21.779Z,99129.08
2019-05-21T06:02:58.521Z,99125.66
2019-05-21T06:03:33.951Z,99126.66
2019-05-21T06:04:10.005Z,99121.39
2019-05-21T06:04:46.145Z,99122.40
2019-05-21T06:05:22.347Z,99122.40
2019-05-21T06:05:58.356Z,99124.16
2019-05-21T06:06:34.481Z,99140.83
2019-05-21T06:07:10.060Z,99143.34
2019-05-21T06:07:58.842Z,99143.34
2019-05-21T06:08:23.842Z,99139.25
2019-05-21T06:08:59.288Z,99137.86
2019-05-21T06:09:36.538Z,99135.10
2019-05-21T06:10:12.880Z,99135.56
2019-05-21T06:10:48.434Z,99130.64
2019-05-21T06:11:24.545Z,99136.48
2019-05-21T06:12:01.211Z,99128.25
2019-05-21T06:12:36.989Z,99138.16
2019-05-21T06:13:13.047Z,99137.58
2019-05-21T06:13:49.405Z,99130.38
2019-05-21T06:14:25.181Z,99128.70
2019-05-21T06:15:01.285Z,99123.52
2019-05-21T06:15:37.726Z,99124.16
2019-05-21T06:16:13.475Z,99126.12
2019-05-21T06:16:49.490Z,99126.12
2019-05-21T06:17:25.483Z,99130.84
2019-05-21T06:18:01.292Z,99135.82
2019-05-21T06:18:37.676Z,99129.00
2019-05-21T06:19:13.781Z,99140.55
2019-05-21T06:19:50.577Z,99134.27
2019-05-21T06:20:27.275Z,99134.27
2019-05-21T06:21:03.392Z,99141.47
2019-05-21T06:21:40.435Z,99137.03
2019-05-21T06:22:16.504Z,99142.50
2019-05-21T06:22:52.941Z,99150.53
2019-05-21T06:23:28.968Z,99143.13
2019-05-21T06:24:05.643Z,99137.48
2019-05-21T06:24:41.725Z,99141.20
2019-05-21T06:25:18.984Z,99148.52
2019-05-21T06:25:55.118Z,99145.73
2019-05-21T06:26:31.139Z,99145.73
2019-05-21T06:27:06.593Z,99143.14
2019-05-21T06:27:43.391Z,99148.81
2019-05-21T06:28:19.436Z,99146.02
2019-05-21T06:28:54.915Z,99145.27
2019-05-21T06:29:30.912Z,99147.31
2019-05-21T06:30:08.028Z,99152.50
2019-05-21T06:30:43.922Z,99156.84
2019-05-21T06:31:20.367Z,99153.63
2019-05-21T06:31:56.730Z,99147.60
2019-05-21T06:32:32.687Z,99143.88
2019-05-21T06:33:08.746Z,99153.50
2019-05-21T06:33:44.823Z,99154.08
2019-05-21T06:34:20.266Z,99154.08
2019-05-21T06:34:56.284Z,99151.57
2019-05-21T06:35:32.394Z,99150.66
2019-05-21T06:36:08.804Z,99149.53
2019-05-21T06:36:45.323Z,99152.78
2019-05-21T06:37:21.338Z,99154.25
2019-05-21T06:37:57.375Z,99154.17
2019-05-21T06:38:33.795Z,99149.36
2019-05-21T06:39:09.989Z,99158.89
2019-05-21T06:39:45.954Z,99158.89
2019-05-21T06:40:21.953Z,99156.47
2019-05-21T06:40:58.267Z,99153.80
2019-05-21T06:41:33.737Z,99152.03
2019-05-21T06:42:10.612Z,99156.22
2019-05-21T06:42:47.232Z,99152.50
2019-05-21T06:43:23.019Z,99168.97
2019-05-21T06:43:59.329Z,99162.78
2019-05-21T06:44:35.347Z,99151.41
2019-05-21T06:45:11.429Z,99155.46
2019-05-21T06:45:47.519Z,99161.41
2019-05-21T06:46:23.501Z,99161.41
2019-05-21T06:46:59.249Z,99165.92
2019-05-21T06:47:35.605Z,99165.66
2019-05-21T06:48:11.859Z,99173.23
2019-05-21T06:48:47.716Z,99168.52
2019-05-21T06:49:24.063Z,99170.47
2019-05-21T06:50:00.884Z,99175.11
2019-05-21T06:50:37.578Z,99175.36
2019-05-21T06:51:13.939Z,99175.56
2019-05-21T06:51:50.315Z,99177.21
2019-05-21T06:52:26.554Z,99172.52
2019-05-21T06:53:02.575Z,99172.52
2019-05-21T06:53:38.642Z,99176.29
2019-05-21T06:54:14.184Z,99186.78
2019-05-21T06:54:50.678Z,99186.78
2019-05-21T06:55:26.700Z,99186.58
2019-05-21T06:56:02.146Z,99179.09
2019-05-21T06:56:38.588Z,99192.13
2019-05-21T06:57:14.731Z,99182.69
2019-05-21T06:57:50.542Z,99185.19
2019-05-21T06:58:26.538Z,99181.77
2019-05-21T06:59:02.566Z,99186.11
2019-05-21T06:59:38.144Z,99186.11
2019-05-21T07:00:15.458Z,99182.60
2019-05-21T07:00:51.505Z,99181.85
2019-05-21T07:01:29.347Z,99181.30
2019-05-21T07:02:04.898Z,99175.83
2019-05-21T07:02:42.825Z,99182.31
2019-05-21T07:03:18.359Z,99188.42
2019-05-21T07:03:54.402Z,99188.42
2019-05-21T07:04:30.389Z,99186.03
2019-05-21T07:05:06.624Z,99192.42
2019-05-21T07:05:57.619Z,99192.42
2019-05-21T07:06:21.692Z,99187.50
2019-05-21T07:06:57.135Z,99193.61
2019-05-21T07:07:33.132Z,99196.20
2019-05-21T07:08:09.229Z,99183.69
2019-05-21T07:08:44.701Z,99189.38
2019-05-21T07:09:20.795Z,99193.72
2019-05-21T07:09:56.835Z,99194.06
2019-05-21T07:10:32.300Z,99191.67
2019-05-21T07:11:08.363Z,99194.44
2019-05-21T07:11:44.554Z,99201.13
2019-05-21T07:12:20.428Z,99194.44
2019-05-21T07:12:56.575Z,99191.77
2019-05-21T07:13:32.616Z,99191.77
2019-05-21T07:14:08.796Z,99193.52
2019-05-21T07:14:44.906Z,99188.62
2019-05-21T07:15:20.931Z,99186.86
2019-05-21T07:15:56.644Z,99192.59